Carnival Liberty — HPYE — position and weather

sailwx.info

Track history (hours):
 
Tides and Currents Weather Stations Pressure Air Temp Water Temp Dewpoint Dewpoint Depression Visibility Wind Speed Wind Dir Waves Ship Positions

Carnival Liberty

Last reported at 2016-Jun-27 22:14 UTC. Time now 2016-Jun-28 16:50 UTC.
Position N 29°20' W 094°42'.

Type: Ship. MMSI: 371083000.

Date/timePositionNaut miles runAvg speedWind from/ knotsBaromVisibWave heightAir tempDewpointWater temp
2016-Jun-27 22:14N 29°20' W 094°42'1 0.1
2016-Jun-27 11:10N 29°20' W 094°40'812.7
2016-Jun-27 10:32N 29°16' W 094°33'66018.6
2016-Jun-25 23:06N 20°46' W 086°50'1222.1
2016-Jun-25 22:33N 20°36' W 086°58'8 7.2
2016-Jun-25 21:31N 20°29' W 086°59'0 0.0
2016-Jun-25 20:31N 20°29' W 086°59'0 0.0
2016-Jun-25 19:33N 20°29' W 086°59'0 0.0
2016-Jun-25 18:33N 20°29' W 086°59'0 0.0
2016-Jun-25 17:32N 20°29' W 086°59'0 0.0
2016-Jun-25 16:32N 20°29' W 086°59'0 0.0
2016-Jun-25 15:31N 20°29' W 086°59'0 0.0
2016-Jun-25 14:31N 20°29' W 086°59'0 0.0
2016-Jun-25 13:34N 20°29' W 086°59'8 8.2
2016-Jun-25 12:33N 20°37' W 086°57'67217.5
2016-Jun-23 22:05N 29°20' W 094°41'510.6
2016-Jun-23 21:33N 29°19' W 094°47'1 0.3
2016-Jun-23 19:28N 29°19' W 094°48'0 0.0
2016-Jun-23 12:14N 29°19' W 094°48'13 6.9
2016-Jun-23 10:21N 29°16' W 094°33'7 8.4
2016-Jun-23 09:30N 29°11' W 094°27'  
2016-Jun-21 00:24N 20°45' W 086°51'1719.5
2016-Jun-20 23:33N 20°30' W 086°59'2 1.6
2016-Jun-20 22:28N 20°29' W 086°59'0 0.0
2016-Jun-20 21:31N 20°29' W 086°59'0 0.0
2016-Jun-20 20:28N 20°29' W 086°59'0 0.0
2016-Jun-20 19:33N 20°29' W 086°59'0 0.0
2016-Jun-20 18:33N 20°29' W 086°59'0 0.0
2016-Jun-20 17:32N 20°29' W 086°59'0 0.0
2016-Jun-20 16:32N 20°29' W 086°59'0 0.0
2016-Jun-20 15:31N 20°29' W 086°59'0 0.0
2016-Jun-20 14:31N 20°29' W 086°59'2 2.6
2016-Jun-20 13:33N 20°31' W 086°60'1515.0
2016-Jun-20 12:33N 20°44' W 086°52'67217.2
2016-Jun-18 21:33N 29°19' W 094°47'1 0.1
2016-Jun-18 12:28N 29°19' W 094°48'1 1.4
2016-Jun-18 11:33N 29°19' W 094°47'11 9.6
2016-Jun-18 10:25N 29°17' W 094°34'1212.8
2016-Jun-18 09:31N 29°10' W 094°24'1617.0
2016-Jun-18 08:33N 29°01' W 094°09'1919.3
2016-Jun-18 07:33N 28°50' W 093°51'2419.5
2016-Jun-18 06:18N 28°36' W 093°28'  
Track history (hours):
 
Tides and Currents Weather Stations Pressure Air Temp Water Temp Dewpoint Dewpoint Depression Visibility Wind Speed Wind Dir Waves Ship Positions

Carnival Liberty

Last reported at 2016-Jun-27 22:14 UTC. Time now 2016-Jun-28 16:50 UTC.
Position N 29°20' W 094°42'.

Type: Ship. MMSI: 371083000.

Date/timePositionNaut miles runAvg speedWind from/ knotsBaromVisibWave heightAir tempDewpointWater temp
2016-Jun-27 22:14N 29°20' W 094°42'1 0.1
2016-Jun-27 11:10N 29°20' W 094°40'812.7
2016-Jun-27 10:32N 29°16' W 094°33'66018.6
2016-Jun-25 23:06N 20°46' W 086°50'1222.1
2016-Jun-25 22:33N 20°36' W 086°58'8 7.2
2016-Jun-25 21:31N 20°29' W 086°59'0 0.0
2016-Jun-25 20:31N 20°29' W 086°59'0 0.0
2016-Jun-25 19:33N 20°29' W 086°59'0 0.0
2016-Jun-25 18:33N 20°29' W 086°59'0 0.0
2016-Jun-25 17:32N 20°29' W 086°59'0 0.0
2016-Jun-25 16:32N 20°29' W 086°59'0 0.0
2016-Jun-25 15:31N 20°29' W 086°59'0 0.0
2016-Jun-25 14:31N 20°29' W 086°59'0 0.0
2016-Jun-25 13:34N 20°29' W 086°59'8 8.2
2016-Jun-25 12:33N 20°37' W 086°57'67217.5
2016-Jun-23 22:05N 29°20' W 094°41'510.6
2016-Jun-23 21:33N 29°19' W 094°47'1 0.3
2016-Jun-23 19:28N 29°19' W 094°48'0 0.0
2016-Jun-23 12:14N 29°19' W 094°48'13 6.9
2016-Jun-23 10:21N 29°16' W 094°33'7 8.4
2016-Jun-23 09:30N 29°11' W 094°27'  
2016-Jun-21 00:24N 20°45' W 086°51'1719.5
2016-Jun-20 23:33N 20°30' W 086°59'2 1.6
2016-Jun-20 22:28N 20°29' W 086°59'0 0.0
2016-Jun-20 21:31N 20°29' W 086°59'0 0.0
2016-Jun-20 20:28N 20°29' W 086°59'0 0.0
2016-Jun-20 19:33N 20°29' W 086°59'0 0.0
2016-Jun-20 18:33N 20°29' W 086°59'0 0.0
2016-Jun-20 17:32N 20°29' W 086°59'0 0.0
2016-Jun-20 16:32N 20°29' W 086°59'0 0.0
2016-Jun-20 15:31N 20°29' W 086°59'0 0.0
2016-Jun-20 14:31N 20°29' W 086°59'2 2.6
2016-Jun-20 13:33N 20°31' W 086°60'1515.0
2016-Jun-20 12:33N 20°44' W 086°52'67217.2
2016-Jun-18 21:33N 29°19' W 094°47'1 0.1
2016-Jun-18 12:28N 29°19' W 094°48'1 1.4
2016-Jun-18 11:33N 29°19' W 094°47'11 9.6
2016-Jun-18 10:25N 29°17' W 094°34'1212.8
2016-Jun-18 09:31N 29°10' W 094°24'1617.0
2016-Jun-18 08:33N 29°01' W 094°09'1919.3
2016-Jun-18 07:33N 28°50' W 093°51'2419.5
2016-Jun-18 06:18N 28°36' W 093°28'  

Dump ship's entire track history